sensor_id;sensor_type;location;lat;lon;timestamp;P1;durP1;ratioP1;P2;durP2;ratioP2
48209;SDS011;33999;52.252;9.616;2022-07-29T00:02:14;4.70;;;1.10;;
48209;SDS011;33999;52.252;9.616;2022-07-29T00:05:16;3.78;;;1.10;;
48209;SDS011;33999;52.252;9.616;2022-07-29T00:08:18;4.18;;;1.20;;
48209;SDS011;33999;52.252;9.616;2022-07-29T00:11:20;3.80;;;1.20;;
48209;SDS011;33999;52.252;9.616;2022-07-29T00:14:21;3.47;;;1.10;;
48209;SDS011;33999;52.252;9.616;2022-07-29T00:17:23;4.18;;;1.10;;
48209;SDS011;33999;52.252;9.616;2022-07-29T00:20:26;4.10;;;1.15;;
48209;SDS011;33999;52.252;9.616;2022-07-29T00:23:27;3.25;;;1.10;;
48209;SDS011;33999;52.252;9.616;2022-07-29T00:26:30;4.10;;;1.20;;
48209;SDS011;33999;52.252;9.616;2022-07-29T00:29:33;4.50;;;1.30;;
48209;SDS011;33999;52.252;9.616;2022-07-29T00:32:35;3.13;;;1.10;;
48209;SDS011;33999;52.252;9.616;2022-07-29T00:35:37;4.18;;;1.20;;
48209;SDS011;33999;52.252;9.616;2022-07-29T00:38:45;5.00;;;1.20;;
48209;SDS011;33999;52.252;9.616;2022-07-29T00:41:47;4.13;;;1.10;;
48209;SDS011;33999;52.252;9.616;2022-07-29T00:44:48;5.47;;;1.10;;
48209;SDS011;33999;52.252;9.616;2022-07-29T00:47:50;4.15;;;1.13;;
48209;SDS011;33999;52.252;9.616;2022-07-29T00:50:52;3.45;;;1.27;;
48209;SDS011;33999;52.252;9.616;2022-07-29T00:53:53;3.70;;;1.02;;
48209;SDS011;33999;52.252;9.616;2022-07-29T00:56:58;3.72;;;1.10;;
48209;SDS011;33999;52.252;9.616;2022-07-29T01:00:01;3.78;;;1.05;;
48209;SDS011;33999;52.252;9.616;2022-07-29T01:03:05;4.53;;;1.25;;
48209;SDS011;33999;52.252;9.616;2022-07-29T01:06:06;3.10;;;1.20;;
48209;SDS011;33999;52.252;9.616;2022-07-29T01:09:10;4.47;;;1.25;;
48209;SDS011;33999;52.252;9.616;2022-07-29T01:12:15;3.72;;;1.23;;
48209;SDS011;33999;52.252;9.616;2022-07-29T01:15:20;4.68;;;1.30;;
48209;SDS011;33999;52.252;9.616;2022-07-29T01:18:24;4.50;;;1.20;;
48209;SDS011;33999;52.252;9.616;2022-07-29T01:21:46;4.30;;;1.50;;
48209;SDS011;33999;52.252;9.616;2022-07-29T01:28:01;4.53;;;1.30;;
48209;SDS011;33999;52.252;9.616;2022-07-29T01:31:06;5.13;;;1.20;;
48209;SDS011;33999;52.252;9.616;2022-07-29T01:41:08;5.63;;;1.20;;
48209;SDS011;33999;52.252;9.616;2022-07-29T01:44:15;3.13;;;1.10;;
48209;SDS011;33999;52.252;9.616;2022-07-29T01:47:22;4.25;;;1.20;;
48209;SDS011;33999;52.252;9.616;2022-07-29T01:50:30;2.80;;;1.20;;
48209;SDS011;33999;52.252;9.616;2022-07-29T01:53:44;4.65;;;1.40;;
48209;SDS011;33999;52.252;9.616;2022-07-29T01:56:52;2.90;;;1.20;;
48209;SDS011;33999;52.252;9.616;2022-07-29T01:59:57;5.13;;;1.35;;
48209;SDS011;33999;52.252;9.616;2022-07-29T02:03:04;3.50;;;1.15;;
48209;SDS011;33999;52.252;9.616;2022-07-29T02:06:10;3.53;;;1.40;;
48209;SDS011;33999;52.252;9.616;2022-07-29T02:09:13;5.60;;;1.45;;
48209;SDS011;33999;52.252;9.616;2022-07-29T02:12:17;4.65;;;1.23;;
48209;SDS011;33999;52.252;9.616;2022-07-29T02:15:20;3.45;;;1.23;;
48209;SDS011;33999;52.252;9.616;2022-07-29T02:18:25;4.68;;;1.35;;
48209;SDS011;33999;52.252;9.616;2022-07-29T02:21:31;4.80;;;1.20;;
48209;SDS011;33999;52.252;9.616;2022-07-29T02:24:35;3.80;;;1.30;;
48209;SDS011;33999;52.252;9.616;2022-07-29T02:27:38;7.72;;;1.45;;
48209;SDS011;33999;52.252;9.616;2022-07-29T02:30:42;3.08;;;1.20;;
48209;SDS011;33999;52.252;9.616;2022-07-29T02:33:45;4.15;;;1.45;;
48209;SDS011;33999;52.252;9.616;2022-07-29T02:36:48;4.65;;;1.10;;
48209;SDS011;33999;52.252;9.616;2022-07-29T02:39:52;3.83;;;1.30;;
48209;SDS011;33999;52.252;9.616;2022-07-29T02:42:56;4.30;;;1.20;;
48209;SDS011;33999;52.252;9.616;2022-07-29T02:45:58;3.83;;;1.40;;
48209;SDS011;33999;52.252;9.616;2022-07-29T02:49:48;3.42;;;1.30;;
48209;SDS011;33999;52.252;9.616;2022-07-29T02:52:43;4.22;;;1.20;;
48209;SDS011;33999;52.252;9.616;2022-07-29T02:55:51;4.55;;;1.30;;
48209;SDS011;33999;52.252;9.616;2022-07-29T02:58:58;6.85;;;1.40;;
48209;SDS011;33999;52.252;9.616;2022-07-29T03:02:02;4.53;;;1.75;;
48209;SDS011;33999;52.252;9.616;2022-07-29T03:05:07;4.00;;;1.35;;
48209;SDS011;33999;52.252;9.616;2022-07-29T03:08:12;3.03;;;1.10;;
48209;SDS011;33999;52.252;9.616;2022-07-29T03:11:16;3.17;;;1.20;;
48209;SDS011;33999;52.252;9.616;2022-07-29T03:14:19;3.95;;;1.40;;
48209;SDS011;33999;52.252;9.616;2022-07-29T03:17:23;3.05;;;1.10;;
48209;SDS011;33999;52.252;9.616;2022-07-29T03:20:26;4.82;;;1.30;;
48209;SDS011;33999;52.252;9.616;2022-07-29T03:23:27;3.42;;;1.30;;
48209;SDS011;33999;52.252;9.616;2022-07-29T03:26:37;3.20;;;1.20;;
48209;SDS011;33999;52.252;9.616;2022-07-29T03:29:38;4.43;;;1.50;;
48209;SDS011;33999;52.252;9.616;2022-07-29T03:32:44;3.08;;;1.20;;
48209;SDS011;33999;52.252;9.616;2022-07-29T03:35:46;3.63;;;1.30;;
48209;SDS011;33999;52.252;9.616;2022-07-29T03:38:48;3.10;;;1.23;;
48209;SDS011;33999;52.252;9.616;2022-07-29T03:41:52;4.55;;;1.65;;
48209;SDS011;33999;52.252;9.616;2022-07-29T03:44:56;3.30;;;1.30;;
48209;SDS011;33999;52.252;9.616;2022-07-29T03:48:02;3.45;;;1.27;;
48209;SDS011;33999;52.252;9.616;2022-07-29T03:51:08;3.60;;;1.13;;
48209;SDS011;33999;52.252;9.616;2022-07-29T03:54:10;4.25;;;1.52;;
48209;SDS011;33999;52.252;9.616;2022-07-29T03:57:12;2.95;;;1.30;;
48209;SDS011;33999;52.252;9.616;2022-07-29T04:00:17;4.82;;;1.55;;
48209;SDS011;33999;52.252;9.616;2022-07-29T04:03:20;3.65;;;1.42;;
48209;SDS011;33999;52.252;9.616;2022-07-29T04:06:23;4.00;;;1.27;;
48209;SDS011;33999;52.252;9.616;2022-07-29T04:09:26;5.70;;;1.50;;
48209;SDS011;33999;52.252;9.616;2022-07-29T04:12:28;4.53;;;1.50;;
48209;SDS011;33999;52.252;9.616;2022-07-29T04:15:32;2.60;;;1.20;;
48209;SDS011;33999;52.252;9.616;2022-07-29T04:18:34;3.80;;;1.30;;
48209;SDS011;33999;52.252;9.616;2022-07-29T04:21:40;5.90;;;1.48;;
48209;SDS011;33999;52.252;9.616;2022-07-29T04:24:42;5.78;;;1.48;;
48209;SDS011;33999;52.252;9.616;2022-07-29T04:27:45;4.20;;;1.50;;
48209;SDS011;33999;52.252;9.616;2022-07-29T04:31:01;4.45;;;1.92;;
48209;SDS011;33999;52.252;9.616;2022-07-29T04:34:03;4.18;;;1.42;;
48209;SDS011;33999;52.252;9.616;2022-07-29T04:37:04;4.50;;;1.40;;
48209;SDS011;33999;52.252;9.616;2022-07-29T04:40:06;4.32;;;1.50;;
48209;SDS011;33999;52.252;9.616;2022-07-29T04:43:08;5.25;;;1.42;;
48209;SDS011;33999;52.252;9.616;2022-07-29T04:46:12;7.18;;;1.80;;
48209;SDS011;33999;52.252;9.616;2022-07-29T04:49:14;3.47;;;1.45;;
48209;SDS011;33999;52.252;9.616;2022-07-29T04:52:16;3.70;;;1.27;;
48209;SDS011;33999;52.252;9.616;2022-07-29T04:55:17;4.18;;;1.33;;
48209;SDS011;33999;52.252;9.616;2022-07-29T04:58:20;4.13;;;1.40;;
48209;SDS011;33999;52.252;9.616;2022-07-29T05:01:24;5.95;;;1.60;;
48209;SDS011;33999;52.252;9.616;2022-07-29T05:04:29;6.32;;;1.70;;
48209;SDS011;33999;52.252;9.616;2022-07-29T05:07:30;4.18;;;1.30;;
48209;SDS011;33999;52.252;9.616;2022-07-29T05:10:32;3.33;;;1.30;;
48209;SDS011;33999;52.252;9.616;2022-07-29T05:13:35;6.68;;;1.48;;
48209;SDS011;33999;52.252;9.616;2022-07-29T05:16:46;5.45;;;1.60;;
48209;SDS011;33999;52.252;9.616;2022-07-29T05:19:48;7.93;;;1.65;;
48209;SDS011;33999;52.252;9.616;2022-07-29T05:22:51;3.65;;;1.30;;
48209;SDS011;33999;52.252;9.616;2022-07-29T05:25:53;4.90;;;1.38;;
48209;SDS011;33999;52.252;9.616;2022-07-29T05:28:55;4.78;;;1.50;;
48209;SDS011;33999;52.252;9.616;2022-07-29T05:31:58;5.05;;;1.35;;
48209;SDS011;33999;52.252;9.616;2022-07-29T05:35:00;4.00;;;1.25;;
48209;SDS011;33999;52.252;9.616;2022-07-29T05:38:02;4.03;;;1.30;;
48209;SDS011;33999;52.252;9.616;2022-07-29T05:41:05;5.32;;;1.30;;
48209;SDS011;33999;52.252;9.616;2022-07-29T05:44:07;9.45;;;1.60;;
48209;SDS011;33999;52.252;9.616;2022-07-29T05:47:08;5.53;;;1.25;;
48209;SDS011;33999;52.252;9.616;2022-07-29T05:50:10;3.92;;;1.20;;
48209;SDS011;33999;52.252;9.616;2022-07-29T05:53:12;4.63;;;1.70;;
48209;SDS011;33999;52.252;9.616;2022-07-29T05:56:20;3.67;;;1.10;;
48209;SDS011;33999;52.252;9.616;2022-07-29T05:59:22;8.82;;;1.80;;
48209;SDS011;33999;52.252;9.616;2022-07-29T06:02:30;7.60;;;1.50;;
48209;SDS011;33999;52.252;9.616;2022-07-29T06:05:32;4.43;;;1.42;;
48209;SDS011;33999;52.252;9.616;2022-07-29T06:08:33;4.90;;;1.20;;
48209;SDS011;33999;52.252;9.616;2022-07-29T06:11:35;5.13;;;1.40;;
48209;SDS011;33999;52.252;9.616;2022-07-29T06:14:37;4.43;;;1.27;;
48209;SDS011;33999;52.252;9.616;2022-07-29T06:17:39;5.22;;;1.60;;
48209;SDS011;33999;52.252;9.616;2022-07-29T06:21:01;3.60;;;1.33;;
48209;SDS011;33999;52.252;9.616;2022-07-29T06:24:02;4.40;;;1.30;;
48209;SDS011;33999;52.252;9.616;2022-07-29T06:27:04;6.43;;;1.52;;
48209;SDS011;33999;52.252;9.616;2022-07-29T06:30:06;6.32;;;1.50;;
48209;SDS011;33999;52.252;9.616;2022-07-29T06:33:15;5.90;;;1.27;;
48209;SDS011;33999;52.252;9.616;2022-07-29T06:36:17;6.25;;;1.75;;
48209;SDS011;33999;52.252;9.616;2022-07-29T06:39:25;7.43;;;1.40;;
48209;SDS011;33999;52.252;9.616;2022-07-29T06:42:27;6.60;;;1.55;;
48209;SDS011;33999;52.252;9.616;2022-07-29T06:45:29;6.70;;;1.80;;
48209;SDS011;33999;52.252;9.616;2022-07-29T06:48:32;7.22;;;1.50;;
48209;SDS011;33999;52.252;9.616;2022-07-29T06:51:35;3.85;;;1.70;;
48209;SDS011;33999;52.252;9.616;2022-07-29T06:54:37;5.47;;;1.70;;
48209;SDS011;33999;52.252;9.616;2022-07-29T06:57:40;4.72;;;1.60;;
48209;SDS011;33999;52.252;9.616;2022-07-29T07:00:42;5.10;;;1.60;;
48209;SDS011;33999;52.252;9.616;2022-07-29T07:03:43;6.45;;;1.73;;
48209;SDS011;33999;52.252;9.616;2022-07-29T07:06:45;5.80;;;1.92;;
48209;SDS011;33999;52.252;9.616;2022-07-29T07:09:47;6.35;;;1.90;;
48209;SDS011;33999;52.252;9.616;2022-07-29T07:12:49;6.60;;;2.03;;
48209;SDS011;33999;52.252;9.616;2022-07-29T07:15:58;5.95;;;1.98;;
48209;SDS011;33999;52.252;9.616;2022-07-29T07:19:00;7.63;;;2.00;;
48209;SDS011;33999;52.252;9.616;2022-07-29T07:22:02;6.72;;;1.80;;
48209;SDS011;33999;52.252;9.616;2022-07-29T07:25:05;7.53;;;1.85;;
48209;SDS011;33999;52.252;9.616;2022-07-29T07:28:07;7.22;;;2.00;;
48209;SDS011;33999;52.252;9.616;2022-07-29T07:31:10;5.65;;;1.80;;
48209;SDS011;33999;52.252;9.616;2022-07-29T07:34:12;6.05;;;1.70;;
48209;SDS011;33999;52.252;9.616;2022-07-29T07:37:14;6.47;;;1.90;;
48209;SDS011;33999;52.252;9.616;2022-07-29T07:40:16;3.50;;;1.50;;
48209;SDS011;33999;52.252;9.616;2022-07-29T07:43:19;8.40;;;1.85;;
48209;SDS011;33999;52.252;9.616;2022-07-29T07:46:20;5.75;;;1.70;;
48209;SDS011;33999;52.252;9.616;2022-07-29T07:49:22;7.95;;;1.75;;
48209;SDS011;33999;52.252;9.616;2022-07-29T07:52:24;6.97;;;1.77;;
48209;SDS011;33999;52.252;9.616;2022-07-29T07:55:27;6.45;;;1.88;;
48209;SDS011;33999;52.252;9.616;2022-07-29T07:58:29;7.40;;;1.77;;
48209;SDS011;33999;52.252;9.616;2022-07-29T08:01:30;7.15;;;1.90;;
48209;SDS011;33999;52.252;9.616;2022-07-29T08:04:53;4.70;;;1.58;;
48209;SDS011;33999;52.252;9.616;2022-07-29T08:07:55;5.15;;;1.70;;
48209;SDS011;33999;52.252;9.616;2022-07-29T08:10:56;8.77;;;1.70;;
48209;SDS011;33999;52.252;9.616;2022-07-29T08:13:58;4.43;;;1.80;;
48209;SDS011;33999;52.252;9.616;2022-07-29T08:17:02;6.75;;;1.60;;
48209;SDS011;33999;52.252;9.616;2022-07-29T08:20:04;5.57;;;1.80;;
48209;SDS011;33999;52.252;9.616;2022-07-29T08:23:07;4.35;;;1.60;;
48209;SDS011;33999;52.252;9.616;2022-07-29T08:26:13;5.83;;;1.90;;
48209;SDS011;33999;52.252;9.616;2022-07-29T08:29:15;6.65;;;1.80;;
48209;SDS011;33999;52.252;9.616;2022-07-29T08:32:20;5.07;;;1.70;;
48209;SDS011;33999;52.252;9.616;2022-07-29T08:35:42;7.55;;;1.70;;
48209;SDS011;33999;52.252;9.616;2022-07-29T08:38:43;4.65;;;1.70;;
48209;SDS011;33999;52.252;9.616;2022-07-29T08:41:45;5.93;;;1.92;;
48209;SDS011;33999;52.252;9.616;2022-07-29T08:44:57;6.03;;;1.70;;
48209;SDS011;33999;52.252;9.616;2022-07-29T08:48:00;5.30;;;1.92;;
48209;SDS011;33999;52.252;9.616;2022-07-29T08:51:02;7.13;;;1.85;;
48209;SDS011;33999;52.252;9.616;2022-07-29T08:54:05;5.72;;;1.88;;
48209;SDS011;33999;52.252;9.616;2022-07-29T08:57:10;5.38;;;1.80;;
48209;SDS011;33999;52.252;9.616;2022-07-29T09:00:14;6.35;;;1.92;;
48209;SDS011;33999;52.252;9.616;2022-07-29T09:03:18;9.10;;;2.00;;
48209;SDS011;33999;52.252;9.616;2022-07-29T09:06:22;7.05;;;2.10;;
48209;SDS011;33999;52.252;9.616;2022-07-29T09:09:29;7.72;;;1.92;;
48209;SDS011;33999;52.252;9.616;2022-07-29T09:12:32;5.60;;;2.05;;
48209;SDS011;33999;52.252;9.616;2022-07-29T09:15:38;4.93;;;1.90;;
48209;SDS011;33999;52.252;9.616;2022-07-29T09:18:41;7.18;;;2.03;;
48209;SDS011;33999;52.252;9.616;2022-07-29T09:21:43;5.47;;;2.00;;
48209;SDS011;33999;52.252;9.616;2022-07-29T09:25:04;6.97;;;2.10;;
48209;SDS011;33999;52.252;9.616;2022-07-29T09:28:13;5.20;;;1.83;;
48209;SDS011;33999;52.252;9.616;2022-07-29T09:31:22;5.93;;;1.90;;
48209;SDS011;33999;52.252;9.616;2022-07-29T09:34:34;5.47;;;2.20;;
48209;SDS011;33999;52.252;9.616;2022-07-29T09:37:36;7.25;;;2.22;;
48209;SDS011;33999;52.252;9.616;2022-07-29T09:40:38;5.63;;;2.10;;
48209;SDS011;33999;52.252;9.616;2022-07-29T09:43:40;5.80;;;2.00;;
48209;SDS011;33999;52.252;9.616;2022-07-29T09:47:01;5.65;;;1.95;;
48209;SDS011;33999;52.252;9.616;2022-07-29T09:50:07;6.05;;;2.03;;
48209;SDS011;33999;52.252;9.616;2022-07-29T09:53:09;5.68;;;1.80;;
48209;SDS011;33999;52.252;9.616;2022-07-29T09:56:11;5.28;;;1.95;;
48209;SDS011;33999;52.252;9.616;2022-07-29T09:59:18;7.53;;;2.17;;
48209;SDS011;33999;52.252;9.616;2022-07-29T10:02:28;6.35;;;2.20;;
48209;SDS011;33999;52.252;9.616;2022-07-29T10:05:33;7.15;;;2.08;;
48209;SDS011;33999;52.252;9.616;2022-07-29T10:08:37;8.60;;;2.30;;
48209;SDS011;33999;52.252;9.616;2022-07-29T10:11:39;5.38;;;2.00;;
48209;SDS011;33999;52.252;9.616;2022-07-29T10:14:53;7.25;;;2.15;;
48209;SDS011;33999;52.252;9.616;2022-07-29T10:17:55;6.55;;;2.13;;
48209;SDS011;33999;52.252;9.616;2022-07-29T10:20:58;5.68;;;2.13;;
48209;SDS011;33999;52.252;9.616;2022-07-29T10:24:02;6.88;;;2.25;;
48209;SDS011;33999;52.252;9.616;2022-07-29T10:27:07;5.57;;;2.05;;
48209;SDS011;33999;52.252;9.616;2022-07-29T10:30:09;6.45;;;2.20;;
48209;SDS011;33999;52.252;9.616;2022-07-29T10:43:35;5.30;;;2.15;;
48209;SDS011;33999;52.252;9.616;2022-07-29T10:46:42;8.15;;;2.13;;
48209;SDS011;33999;52.252;9.616;2022-07-29T10:50:02;10.25;;;2.58;;
48209;SDS011;33999;52.252;9.616;2022-07-29T10:53:05;7.63;;;2.33;;
48209;SDS011;33999;52.252;9.616;2022-07-29T10:56:22;6.43;;;2.50;;
48209;SDS011;33999;52.252;9.616;2022-07-29T10:59:28;5.97;;;2.17;;
48209;SDS011;33999;52.252;9.616;2022-07-29T11:05:54;7.75;;;2.30;;
48209;SDS011;33999;52.252;9.616;2022-07-29T11:09:18;10.45;;;2.40;;
48209;SDS011;33999;52.252;9.616;2022-07-29T11:15:53;10.95;;;2.70;;
48209;SDS011;33999;52.252;9.616;2022-07-29T11:22:32;6.25;;;1.95;;
48209;SDS011;33999;52.252;9.616;2022-07-29T11:25:35;8.32;;;2.83;;
48209;SDS011;33999;52.252;9.616;2022-07-29T11:32:08;6.10;;;2.30;;
48209;SDS011;33999;52.252;9.616;2022-07-29T11:35:23;6.07;;;2.17;;
48209;SDS011;33999;52.252;9.616;2022-07-29T11:38:40;9.35;;;2.30;;
48209;SDS011;33999;52.252;9.616;2022-07-29T11:41:42;6.28;;;2.20;;
48209;SDS011;33999;52.252;9.616;2022-07-29T11:48:34;8.13;;;2.33;;
48209;SDS011;33999;52.252;9.616;2022-07-29T11:51:36;8.93;;;2.28;;
48209;SDS011;33999;52.252;9.616;2022-07-29T11:54:49;10.30;;;2.28;;
48209;SDS011;33999;52.252;9.616;2022-07-29T11:58:01;9.43;;;2.30;;
48209;SDS011;33999;52.252;9.616;2022-07-29T12:01:04;7.60;;;2.22;;
48209;SDS011;33999;52.252;9.616;2022-07-29T12:04:07;7.85;;;2.40;;
48209;SDS011;33999;52.252;9.616;2022-07-29T12:07:11;8.88;;;2.30;;
48209;SDS011;33999;52.252;9.616;2022-07-29T12:10:16;8.07;;;2.30;;
48209;SDS011;33999;52.252;9.616;2022-07-29T12:13:20;6.28;;;2.40;;
48209;SDS011;33999;52.252;9.616;2022-07-29T12:16:22;8.70;;;2.53;;
48209;SDS011;33999;52.252;9.616;2022-07-29T12:19:29;6.45;;;2.33;;
48209;SDS011;33999;52.252;9.616;2022-07-29T12:22:44;8.85;;;2.38;;
48209;SDS011;33999;52.252;9.616;2022-07-29T12:25:46;5.68;;;2.50;;
48209;SDS011;33999;52.252;9.616;2022-07-29T12:28:50;7.32;;;2.35;;
48209;SDS011;33999;52.252;9.616;2022-07-29T12:31:52;9.80;;;2.20;;
48209;SDS011;33999;52.252;9.616;2022-07-29T12:34:58;10.13;;;2.28;;
48209;SDS011;33999;52.252;9.616;2022-07-29T12:38:01;10.48;;;2.42;;
48209;SDS011;33999;52.252;9.616;2022-07-29T12:41:03;6.57;;;2.28;;
48209;SDS011;33999;52.252;9.616;2022-07-29T12:44:05;7.43;;;2.30;;
48209;SDS011;33999;52.252;9.616;2022-07-29T12:47:07;6.78;;;2.50;;
48209;SDS011;33999;52.252;9.616;2022-07-29T12:50:10;7.72;;;2.30;;
48209;SDS011;33999;52.252;9.616;2022-07-29T12:53:16;9.77;;;2.45;;
48209;SDS011;33999;52.252;9.616;2022-07-29T12:56:18;8.02;;;2.55;;
48209;SDS011;33999;52.252;9.616;2022-07-29T12:59:40;7.68;;;2.45;;
48209;SDS011;33999;52.252;9.616;2022-07-29T13:02:43;8.05;;;2.47;;
48209;SDS011;33999;52.252;9.616;2022-07-29T13:05:45;7.80;;;2.17;;
48209;SDS011;33999;52.252;9.616;2022-07-29T13:12:10;6.20;;;2.08;;
48209;SDS011;33999;52.252;9.616;2022-07-29T13:15:14;7.15;;;2.30;;
48209;SDS011;33999;52.252;9.616;2022-07-29T13:18:29;7.28;;;2.58;;
48209;SDS011;33999;52.252;9.616;2022-07-29T13:21:32;7.30;;;2.30;;
48209;SDS011;33999;52.252;9.616;2022-07-29T13:24:44;8.25;;;2.25;;
48209;SDS011;33999;52.252;9.616;2022-07-29T13:27:49;7.28;;;2.30;;
48209;SDS011;33999;52.252;9.616;2022-07-29T13:30:53;3.63;;;1.90;;
48209;SDS011;33999;52.252;9.616;2022-07-29T13:33:55;7.53;;;2.40;;
48209;SDS011;33999;52.252;9.616;2022-07-29T13:36:57;7.20;;;2.35;;
48209;SDS011;33999;52.252;9.616;2022-07-29T13:39:59;5.75;;;2.08;;
48209;SDS011;33999;52.252;9.616;2022-07-29T13:43:01;6.95;;;2.20;;
48209;SDS011;33999;52.252;9.616;2022-07-29T13:46:02;4.97;;;2.30;;
48209;SDS011;33999;52.252;9.616;2022-07-29T13:49:04;7.45;;;2.38;;
48209;SDS011;33999;52.252;9.616;2022-07-29T13:52:06;8.05;;;2.28;;
48209;SDS011;33999;52.252;9.616;2022-07-29T13:55:08;6.35;;;2.50;;
48209;SDS011;33999;52.252;9.616;2022-07-29T13:58:10;5.75;;;2.10;;
48209;SDS011;33999;52.252;9.616;2022-07-29T14:01:12;6.72;;;2.20;;
48209;SDS011;33999;52.252;9.616;2022-07-29T14:04:14;7.55;;;2.70;;
48209;SDS011;33999;52.252;9.616;2022-07-29T14:07:16;8.18;;;3.00;;
48209;SDS011;33999;52.252;9.616;2022-07-29T14:10:21;13.23;;;3.03;;
48209;SDS011;33999;52.252;9.616;2022-07-29T14:13:27;8.52;;;2.60;;
48209;SDS011;33999;52.252;9.616;2022-07-29T14:16:28;7.57;;;2.65;;
48209;SDS011;33999;52.252;9.616;2022-07-29T14:19:30;6.70;;;2.70;;
48209;SDS011;33999;52.252;9.616;2022-07-29T14:22:33;8.13;;;3.00;;
48209;SDS011;33999;52.252;9.616;2022-07-29T14:25:40;7.20;;;3.10;;
48209;SDS011;33999;52.252;9.616;2022-07-29T14:28:44;6.07;;;2.75;;
48209;SDS011;33999;52.252;9.616;2022-07-29T14:31:47;8.68;;;2.70;;
48209;SDS011;33999;52.252;9.616;2022-07-29T14:34:58;7.20;;;2.72;;
48209;SDS011;33999;52.252;9.616;2022-07-29T14:38:02;7.18;;;2.60;;
48209;SDS011;33999;52.252;9.616;2022-07-29T14:41:04;6.93;;;2.63;;
48209;SDS011;33999;52.252;9.616;2022-07-29T14:44:06;6.78;;;2.70;;
48209;SDS011;33999;52.252;9.616;2022-07-29T14:47:07;9.15;;;2.70;;
48209;SDS011;33999;52.252;9.616;2022-07-29T14:50:13;7.15;;;2.90;;
48209;SDS011;33999;52.252;9.616;2022-07-29T14:53:15;10.80;;;2.83;;
48209;SDS011;33999;52.252;9.616;2022-07-29T14:56:18;9.00;;;2.75;;
48209;SDS011;33999;52.252;9.616;2022-07-29T14:59:37;11.10;;;3.13;;
48209;SDS011;33999;52.252;9.616;2022-07-29T15:02:51;7.13;;;2.97;;
48209;SDS011;33999;52.252;9.616;2022-07-29T15:06:02;7.82;;;2.53;;
48209;SDS011;33999;52.252;9.616;2022-07-29T15:09:04;6.43;;;2.35;;
48209;SDS011;33999;52.252;9.616;2022-07-29T15:12:06;5.93;;;2.50;;
48209;SDS011;33999;52.252;9.616;2022-07-29T15:15:08;7.80;;;2.40;;
48209;SDS011;33999;52.252;9.616;2022-07-29T15:18:10;6.80;;;2.50;;
48209;SDS011;33999;52.252;9.616;2022-07-29T15:21:12;9.48;;;2.90;;
48209;SDS011;33999;52.252;9.616;2022-07-29T15:24:23;8.02;;;2.60;;
48209;SDS011;33999;52.252;9.616;2022-07-29T15:27:25;6.40;;;2.70;;
48209;SDS011;33999;52.252;9.616;2022-07-29T15:30:27;9.55;;;2.58;;
48209;SDS011;33999;52.252;9.616;2022-07-29T15:33:34;8.05;;;2.63;;
48209;SDS011;33999;52.252;9.616;2022-07-29T15:36:36;8.80;;;2.40;;
48209;SDS011;33999;52.252;9.616;2022-07-29T15:40:01;8.77;;;2.88;;
48209;SDS011;33999;52.252;9.616;2022-07-29T15:43:03;6.63;;;2.78;;
48209;SDS011;33999;52.252;9.616;2022-07-29T15:46:07;7.00;;;2.80;;
48209;SDS011;33999;52.252;9.616;2022-07-29T15:49:27;7.97;;;2.60;;
48209;SDS011;33999;52.252;9.616;2022-07-29T15:52:54;6.13;;;2.63;;
48209;SDS011;33999;52.252;9.616;2022-07-29T15:55:55;7.25;;;2.70;;
48209;SDS011;33999;52.252;9.616;2022-07-29T15:58:57;7.28;;;2.50;;
48209;SDS011;33999;52.252;9.616;2022-07-29T16:02:04;7.82;;;3.15;;
48209;SDS011;33999;52.252;9.616;2022-07-29T16:05:06;5.72;;;2.65;;
48209;SDS011;33999;52.252;9.616;2022-07-29T16:08:09;8.70;;;3.38;;
48209;SDS011;33999;52.252;9.616;2022-07-29T16:11:11;5.88;;;3.00;;
48209;SDS011;33999;52.252;9.616;2022-07-29T16:14:13;9.15;;;3.00;;
48209;SDS011;33999;52.252;9.616;2022-07-29T16:17:15;10.18;;;3.17;;
48209;SDS011;33999;52.252;9.616;2022-07-29T16:20:17;5.78;;;2.85;;
48209;SDS011;33999;52.252;9.616;2022-07-29T16:23:22;6.75;;;2.67;;
48209;SDS011;33999;52.252;9.616;2022-07-29T16:26:25;8.70;;;2.63;;
48209;SDS011;33999;52.252;9.616;2022-07-29T16:29:27;6.22;;;2.50;;
48209;SDS011;33999;52.252;9.616;2022-07-29T16:32:29;8.15;;;2.50;;
48209;SDS011;33999;52.252;9.616;2022-07-29T16:35:31;8.80;;;2.60;;
48209;SDS011;33999;52.252;9.616;2022-07-29T16:38:40;6.75;;;2.40;;
48209;SDS011;33999;52.252;9.616;2022-07-29T16:41:47;6.00;;;2.50;;
48209;SDS011;33999;52.252;9.616;2022-07-29T16:44:49;5.18;;;2.30;;
48209;SDS011;33999;52.252;9.616;2022-07-29T16:47:52;6.00;;;2.50;;
48209;SDS011;33999;52.252;9.616;2022-07-29T16:51:00;9.15;;;2.80;;
48209;SDS011;33999;52.252;9.616;2022-07-29T16:54:04;8.40;;;2.45;;
48209;SDS011;33999;52.252;9.616;2022-07-29T16:57:06;8.27;;;2.45;;
48209;SDS011;33999;52.252;9.616;2022-07-29T17:00:08;5.00;;;2.50;;
48209;SDS011;33999;52.252;9.616;2022-07-29T17:03:11;6.97;;;2.60;;
48209;SDS011;33999;52.252;9.616;2022-07-29T17:06:13;6.60;;;2.35;;
48209;SDS011;33999;52.252;9.616;2022-07-29T17:09:15;5.97;;;2.45;;
48209;SDS011;33999;52.252;9.616;2022-07-29T17:12:18;5.35;;;2.42;;
48209;SDS011;33999;52.252;9.616;2022-07-29T17:15:19;6.85;;;2.35;;
48209;SDS011;33999;52.252;9.616;2022-07-29T17:18:22;8.00;;;3.33;;
48209;SDS011;33999;52.252;9.616;2022-07-29T17:21:25;9.25;;;4.20;;
48209;SDS011;33999;52.252;9.616;2022-07-29T17:24:27;9.50;;;4.15;;
48209;SDS011;33999;52.252;9.616;2022-07-29T17:27:29;8.23;;;3.90;;
48209;SDS011;33999;52.252;9.616;2022-07-29T17:30:32;6.45;;;3.20;;
48209;SDS011;33999;52.252;9.616;2022-07-29T17:33:34;8.57;;;2.95;;
48209;SDS011;33999;52.252;9.616;2022-07-29T17:36:36;7.88;;;2.60;;
48209;SDS011;33999;52.252;9.616;2022-07-29T17:39:38;8.40;;;2.58;;
48209;SDS011;33999;52.252;9.616;2022-07-29T17:42:41;5.80;;;2.20;;
48209;SDS011;33999;52.252;9.616;2022-07-29T17:45:45;5.93;;;2.17;;
48209;SDS011;33999;52.252;9.616;2022-07-29T17:48:50;6.77;;;2.27;;
48209;SDS011;33999;52.252;9.616;2022-07-29T17:51:52;5.25;;;2.30;;
48209;SDS011;33999;52.252;9.616;2022-07-29T17:55:00;6.22;;;2.30;;
48209;SDS011;33999;52.252;9.616;2022-07-29T17:58:02;6.63;;;2.40;;
48209;SDS011;33999;52.252;9.616;2022-07-29T18:01:04;6.82;;;2.58;;
48209;SDS011;33999;52.252;9.616;2022-07-29T18:04:07;4.63;;;2.20;;
48209;SDS011;33999;52.252;9.616;2022-07-29T18:07:10;5.32;;;2.38;;
48209;SDS011;33999;52.252;9.616;2022-07-29T18:10:11;6.82;;;2.63;;
48209;SDS011;33999;52.252;9.616;2022-07-29T18:13:13;6.60;;;2.60;;
48209;SDS011;33999;52.252;9.616;2022-07-29T18:16:16;6.15;;;2.47;;
48209;SDS011;33999;52.252;9.616;2022-07-29T18:19:18;4.78;;;2.47;;
48209;SDS011;33999;52.252;9.616;2022-07-29T18:22:20;6.82;;;2.72;;
48209;SDS011;33999;52.252;9.616;2022-07-29T18:25:22;6.95;;;2.60;;
48209;SDS011;33999;52.252;9.616;2022-07-29T18:28:24;7.05;;;2.65;;
48209;SDS011;33999;52.252;9.616;2022-07-29T18:31:26;5.80;;;2.20;;
48209;SDS011;33999;52.252;9.616;2022-07-29T18:34:28;6.05;;;2.30;;
48209;SDS011;33999;52.252;9.616;2022-07-29T18:37:29;6.00;;;2.33;;
48209;SDS011;33999;52.252;9.616;2022-07-29T18:40:51;4.88;;;2.15;;
48209;SDS011;33999;52.252;9.616;2022-07-29T18:43:53;4.93;;;2.30;;
48209;SDS011;33999;52.252;9.616;2022-07-29T18:46:54;7.80;;;2.40;;
48209;SDS011;33999;52.252;9.616;2022-07-29T18:49:58;4.75;;;2.25;;
48209;SDS011;33999;52.252;9.616;2022-07-29T18:52:59;5.47;;;2.20;;
48209;SDS011;33999;52.252;9.616;2022-07-29T18:56:03;7.80;;;2.60;;
48209;SDS011;33999;52.252;9.616;2022-07-29T18:59:05;6.30;;;2.33;;
48209;SDS011;33999;52.252;9.616;2022-07-29T19:02:10;6.78;;;2.30;;
48209;SDS011;33999;52.252;9.616;2022-07-29T19:05:12;5.65;;;2.40;;
48209;SDS011;33999;52.252;9.616;2022-07-29T19:08:14;7.05;;;2.25;;
48209;SDS011;33999;52.252;9.616;2022-07-29T19:11:15;6.68;;;2.30;;
48209;SDS011;33999;52.252;9.616;2022-07-29T19:14:17;6.78;;;2.40;;